Bay Area Logo

Alameda, CA Condo Real Estate Listings

40 Total Real Estate Listings * Click on table heading to sort
Date Posted Property Type Style Address Price Living Area Lot Size Price/Sq Ft.
2018-09-15 Condo Contemporary 1027 Tahiti Alameda, CA 04502 $748,000 1,261 sq. ft. 1,742 sq. ft. $593
2018-09-14 Condo Mid Century Modern 1601 Broadway Alameda, CA 94501 $599,000 1,069 sq. ft. 13,939 sq. ft. $560
2018-09-14 Condo Contemporary 955 Shorepoint Ct Alameda, CA 94501 $399,000 773 sq. ft. 101,059 sq. ft. $516
2018-09-13 Condo Contemporary 1155 Bismarck Ln Alameda, CA 94502 $695,000 1,274 sq. ft. 2,178 sq. ft. $546
2018-09-13 Condo Contemporary 325 Kitty Hawk Road Unit 208 Alameda, CA 94501 $498,000 771 sq. ft. 43,560 sq. ft. $646
2018-09-07 Condo Contemporary 1802 Entrance Road Alameda, CA 94501 $949,000 2,280 sq. ft. $416
2018-09-07 Condo Contemporary 960 Shorepoint Ct Alameda, CA 94501 $549,000 926 sq. ft. 133,729 sq. ft. $593
2018-09-06 Condo Brown Shingle 372 Centre Ct Alameda, CA 94502 $728,000 1,664 sq. ft. 84,071 sq. ft. $438
2018-09-06 Condo Contemporary 3104 El Paseo Alameda, CA 94502 $769,000 1,584 sq. ft. 1,742 sq. ft. $485
2018-09-04 Condo Contemporary 1305 Webster St Alameda, CA 94501 $399,000 701 sq. ft. 47,045 sq. ft. $569
2018-09-04 Condo Contemporary 3007 Triumph Dr Alameda, CA 94501 $1,080,000 1,503 sq. ft. 18,295 sq. ft. $719
2018-09-03 Condo Contemporary 29 Courageous Ct Alameda, CA 94501 $850,000 1,204 sq. ft. 35,284 sq. ft. $706
2018-08-29 Condo Contemporary 342 Tideway Drive Alameda, CA 94501 $1,195,000 2,067 sq. ft. 2,614 sq. ft. $578
2018-08-29 Condo Contemporary 2031 Otis Dr Alameda, CA 94501 $599,000 954 sq. ft. 138,521 sq. ft. $628
2018-08-28 Condo Contemporary 3540 Magnolia Dr Alameda, CA 94502 $749,000 1,642 sq. ft. 1,742 sq. ft. $456
2018-08-27 Condo Contemporary 410 Baywood Rd Alameda, CA 94502 $749,000 1,725 sq. ft. 1,742 sq. ft. $434
2018-08-24 Condo Contemporary 1305 Webster St Alameda, CA 94501 $399,000 701 sq. ft. 47,045 sq. ft. $569
2018-08-24 Condo Contemporary 339 Broadway Alameda, CA 94501 $589,000 955 sq. ft. 0 sq. ft. $617
2018-08-22 Condo Contemporary 3101 La Campania Alameda, CA 94502 $759,000 1,628 sq. ft. 1,742 sq. ft. $466
2018-08-20 Condo 325 Kitty Hawk Rd Alameda, CA 94501 $588,000 854 sq. ft. 43,560 sq. ft. $689
2018-08-17 Condo Mid Century Modern 1001 Shoreline Dr Alameda, CA 94501 $725,000 1,360 sq. ft. 39,204 sq. ft. $533
2018-08-13 Condo Contemporary 27 Regulus Court Alameda, CA 94501 $895,000 1,443 sq. ft. 27,007 sq. ft. $620
2018-08-07 Condo Contemporary 3450 Capella Ln Alameda, CA 94502 $777,000 1,334 sq. ft. 1,742 sq. ft. $582
2018-08-06 Condo Contemporary 3422 Brithorn Ln Alameda, CA 94502 $735,000 1,760 sq. ft. 1,742 sq. ft. $418
2018-08-05 Condo Contemporary 1011 Kingston Alameda, CA 94502 $845,000 2,004 sq. ft. 1,742 sq. ft. $422
2018-08-03 Condo Contemporary 1701 Central Ave Alameda, CA 94501 $648,000 1,204 sq. ft. 21,344 sq. ft. $538
2018-07-13 Condo 1367 Crown Drive Alameda, CA 94501 $759,000 1,182 sq. ft. $642
2018-07-12 Condo Contemporary 2035 Otis Dr Alameda, CA 94501 $599,000 894 sq. ft. 138,521 sq. ft. $670
2018-07-12 Condo Contemporary 420 Cola Ballena Alameda, CA 94501 $799,950 1,626 sq. ft. 100,188 sq. ft. $492
2018-07-09 Condo Contemporary 420 Cola Ballena Alameda, CA 94501 $899,000 2,139 sq. ft. 100,188 sq. ft. $420
2018-07-06 Condo Contemporary 403 Cola Ballena Alameda, CA 94501 $1,200,000 2,054 sq. ft. 2,178 sq. ft. $584
2018-06-26 Condo Contemporary 2031 Otis Dr Alameda, CA 94501 $588,000 972 sq. ft. 138,521 sq. ft. $605
2017-12-21 Condo Victorian 1931 Mulberry St Alameda, CA 94501 $869,990 1,453 sq. ft. 1,307 sq. ft. $599
2017-12-18 Condo Colonial 1916 Willow St Alameda, CA 94501 $899,990 1,476 sq. ft. $610
2017-12-01 Condo Victorian 1929 Mulberry St Alameda, CA 94501 $849,990 1,453 sq. ft. 1,307 sq. ft. $585
2017-06-01 Condo Contemporary 472 Diller Alameda, CA 94501 $962,486 2,072 sq. ft. $465
2017-06-01 Condo Contemporary 466 Diller Alameda, CA 94501 $964,933 2,072 sq. ft. $466
2016-11-18 Condo Contemporary 478 Diller Alameda, CA 94501 $975,000 1,763 sq. ft. $553
2016-11-01 Condo Contemporary 498 Diller Alameda, CA 94501 $994,968 1,936 sq. ft. $514
2016-11-01 Condo Contemporary 492 Diller St Alameda, CA 94501 $977,899 1,936 sq. ft. $505